Latest Weather Observations for Wyndham Airport

IDD60801

Issued at 5:41 am CST Friday 30 October 2020 (issued every 10 minutes, with the page automatically refreshed every 10 minutes)

About weather observations | Map of weather stations | Latest weather observations for NT | Other Formats
Station Details ID: 001006 Name: WYNDHAM AERO Lat: -15.51 Lon: 128.15 Height: 3.8 m
Data from the previous 72 hours. | See also: Recent months at Wyndham Airport
Date/Time
CST
Temp
°C
App
Temp
°C
Dew
Point
°C
Rel
Hum
%
Delta-T
°C
Wind Press
QNH
hPa
Press
MSL
hPa
Rain since
9am
mm
Dir  Spd
km/h
Gust
km/h
Spd
kts
Gust
kts
30/05:30am 27.9 30.1 21.2 67 4.5 WNW 11 13 6 7 1010.0 1010.0 0.8
30/05:00am 27.8 29.7 20.6 65 4.7 WNW 11 11 6 6 1009.7 1009.7 0.8
30/04:30am 28.1 30.2 20.9 65 4.8 WNW 11 11 6 6 1009.5 1009.5 0.8
30/04:00am 28.4 30.0 20.7 63 5.1 WNW 13 17 7 9 1009.5 1009.5 0.8
30/03:30am 28.4 29.6 20.7 63 5.1 W 15 19 8 10 1009.5 1009.5 0.8
30/03:00am 29.0 29.4 21.0 62 5.3 W 20 24 11 13 1009.4 1009.4 0.8
30/02:30am 29.1 31.3 22.6 68 4.4 W 15 17 8 9 1009.6 1009.6 0.8
30/02:00am 29.5 30.8 22.7 67 4.6 W 20 26 11 14 1009.8 1009.8 0.8
30/01:30am 29.2 32.6 23.4 71 4.0 WSW 11 17 6 9 1010.0 1010.0 0.8
30/01:00am 28.0 32.6 24.2 80 2.6 SE 7 7 4 4 1010.2 1010.2 0.8
30/12:30am 28.1 32.8 23.9 78 2.9 SE 6 7 3 4 1010.4 1010.4 0.8
30/12:00am 28.3 33.5 22.8 72 3.7 CALM 0 0 0 0 1010.7 1010.7 0.8
 
Date/Time
CST
Temp
°C
App
Temp
°C
Dew
Point
°C
Rel
Hum
%
Delta-T
°C
Wind Press
QNH
hPa
Press
MSL
hPa
Rain since
9am
mm
Dir  Spd
km/h
Gust
km/h
Spd
kts
Gust
kts
29/11:30pm 28.5 31.9 22.7 71 3.9 SE 9 13 5 7 1010.8 1010.8 0.8
29/11:00pm 29.0 31.0 23.0 70 4.1 SE 17 20 9 11 1011.0 1011.0 0.8
29/10:30pm 30.3 33.8 22.2 62 5.5 N 7 9 4 5 1010.9 1010.9 0.8
29/10:00pm 30.8 33.7 20.7 55 6.7 N 6 9 3 5 1010.6 1010.6 0.8
29/09:30pm 31.1 33.8 21.3 56 6.6 NE 9 13 5 7 1010.7 1010.7 0.8
29/09:00pm 31.5 33.3 21.1 54 7.0 NNE 13 17 7 9 1010.8 1010.8 0.8
29/08:30pm 31.7 33.6 20.6 51 7.4 NNW 11 17 6 9 1010.4 1010.4 0.8
29/08:00pm 31.9 33.5 20.8 51 7.4 NNE 13 20 7 11 1009.5 1009.5 0.8
29/07:30pm 32.0 33.0 20.3 50 7.8 NNE 15 20 8 11 1009.1 1009.1 0.8
29/07:00pm 31.1 34.1 21.9 58 6.2 ENE 9 15 5 8 1009.0 1009.0 0.8
29/06:30pm 30.5 32.6 22.4 62 5.5 ESE 15 20 8 11 1008.6 1008.6 0.8
29/06:00pm 31.4 30.8 21.3 55 6.8 E 26 41 14 22 1008.2 1008.2 0.8
29/05:30pm 32.8 32.4 19.3 45 8.9 NE 20 26 11 14 1007.8 1007.8 0.8
29/05:00pm 32.0 32.5 22.7 58 6.4 NE 24 30 13 16 1007.2 1007.2 0.8
29/04:39pm 34.2 31.9 19.4 41 9.8 E 30 48 16 26 1007.4 1007.4 0.0
29/04:34pm 31.6 27.5 18.2 44 8.6 E 37 56 20 30 1007.7 1007.7 0.0
29/04:30pm 31.7 28.0 18.3 45 8.7 E 35 56 19 30 1008.0 1008.0 0.0
29/04:23pm 33.7 31.5 18.6 40 9.8 E 28 54 15 29 1007.8 1007.8 0.0
29/04:00pm 37.0 34.3 17.6 32 12.6 N 28 37 15 20 1007.1 1007.1 0.0
29/03:30pm 36.5 35.6 19.9 38 11.1 N 24 37 13 20 1007.6 1007.6 0.0
29/03:23pm 37.1 37.5 19.1 35 11.9 NNW 15 37 8 20 1007.7 1007.7 0.0
29/03:00pm 38.6 39.0 16.3 27 14.3 SW 9 15 5 8 1008.0 1008.0 0.0
29/02:30pm 37.4 36.9 15.8 27 13.7 NNE 13 19 7 10 1008.6 1008.6 0.0
29/02:00pm 37.6 36.9 16.5 28 13.5 NNE 15 22 8 12 1009.2 1009.2 0.0
29/01:30pm 37.3 37.1 16.8 29 13.2 NE 13 20 7 11 1009.8 1009.8 0.0
29/01:00pm 36.4 37.3 17.5 32 12.2 NE 9 20 5 11 1010.4 1010.4 0.0
29/12:30pm 36.4 37.5 18.0 33 12.0 E 9 17 5 9 1011.0 1011.0 0.0
29/12:00pm 36.4 37.9 18.0 33 12.0 ESE 7 17 4 9 1011.6 1011.6 0.0
29/11:30am 34.9 36.6 18.5 38 10.7 E 7 11 4 6 1012.0 1012.0 0.0
29/11:00am 33.9 37.3 21.7 49 8.3 NW 6 9 3 5 1012.4 1012.4 0.0
29/10:30am 32.9 36.1 21.7 51 7.6 SW 7 11 4 6 1012.7 1012.7 17.2
29/10:00am 32.3 36.1 22.4 56 6.8 SSW 6 9 3 5 1013.2 1013.2 17.2
29/09:30am 31.9 35.3 21.7 54 6.9 SSW 6 9 3 5 1013.4 1013.4 17.2
29/09:00am 31.1 34.7 22.1 58 6.1 SSW 6 9 3 5 1013.2 1013.2 17.2
29/08:30am 30.3 33.8 22.2 62 5.5 SSW 7 9 4 5 1013.2 1013.2 17.2
29/08:00am 29.4 33.9 21.6 63 5.2 CALM 0 0 0 0 1013.0 1013.0 17.2
29/07:30am 27.8 31.7 23.0 75 3.3 SSW 7 9 4 5 1012.8 1012.8 17.2
29/07:00am 26.5 30.4 23.6 84 2.0 SSW 9 9 5 5 1012.5 1012.5 17.2
29/06:30am 25.3 29.1 23.5 90 1.2 SSW 9 11 5 6 1012.3 1012.3 17.2
29/06:00am 25.7 31.0 23.7 89 1.4 SSW 2 7 1 4 1012.0 1012.0 17.2
29/05:30am 26.0 30.5 23.9 88 1.4 SSW 7 7 4 4 1011.6 1011.6 17.2
29/05:00am 25.9 31.6 23.8 88 1.4 CALM 0 6 0 3 1011.2 1011.2 17.2
29/04:30am 25.8 30.1 23.7 88 1.4 SSW 7 7 4 4 1011.0 1011.0 17.2
29/04:00am 26.3 30.7 23.8 86 1.7 SSW 7 9 4 5 1010.8 1010.8 17.2
29/03:30am 26.5 30.4 23.6 84 2.0 SSW 9 11 5 6 1010.8 1010.8 17.2
29/03:00am 26.3 30.2 23.0 82 2.2 SSW 7 9 4 5 1010.8 1010.8 17.2
29/02:30am 27.3 31.9 24.2 83 2.1 SSW 7 9 4 5 1010.9 1010.9 17.2
29/02:00am 26.8 32.8 24.3 86 1.7 CALM 0 0 0 0 1011.0 1011.0 17.2
29/01:30am 26.6 32.5 24.1 86 1.7 CALM 0 4 0 2 1011.1 1011.1 17.2
29/01:00am 26.9 31.1 23.2 80 2.5 SSW 6 9 3 5 1011.4 1011.4 17.2
29/12:30am 27.0 32.2 23.5 81 2.4 SSW 2 9 1 5 1011.6 1011.6 17.2
29/12:00am 27.7 33.5 23.9 80 2.6 CALM 0 0 0 0 1011.7 1011.7 17.2
 
Date/Time
CST
Temp
°C
App
Temp
°C
Dew
Point
°C
Rel
Hum
%
Delta-T
°C
Wind Press
QNH
hPa
Press
MSL
hPa
Rain since
9am
mm
Dir  Spd
km/h
Gust
km/h
Spd
kts
Gust
kts
28/11:30pm 28.2 33.6 23.3 75 3.4 CALM 0 0 0 0 1011.9 1011.9 17.2
28/11:00pm 28.1 32.6 23.0 74 3.5 SSW 4 6 2 3 1012.2 1012.2 17.2
28/10:30pm 28.3 32.8 21.6 67 4.5 CALM 0 0 0 0 1012.4 1012.4 17.2
28/10:00pm 28.0 33.1 22.7 73 3.6 CALM 0 0 0 0 1012.1 1012.1 17.2
28/09:30pm 28.2 32.1 23.6 76 3.2 SSW 9 9 5 5 1011.6 1011.6 17.2
28/09:00pm 28.2 34.0 24.0 78 2.9 CALM 0 0 0 0 1011.0 1011.0 17.2
28/08:30pm 28.2 33.8 24.2 79 2.8 SSW 2 6 1 3 1011.0 1011.0 17.2
28/08:00pm 28.3 32.9 24.7 81 2.5 SSW 9 13 5 7 1010.8 1010.8 17.2
28/07:30pm 28.3 35.3 26.5 90 1.3 SSW 2 6 1 3 1010.7 1010.7 17.2
28/07:00pm 28.0 34.0 28.0 100 0.0 SSW 13 17 7 9 1010.1 1010.1 17.2
28/06:30pm 27.7 - - - - SSW 24 32 13 17 1009.6 1009.6 17.2
28/06:00pm 28.0 - - - - N 2 11 1 6 1009.1 1009.1 17.2
28/05:30pm 26.9 - - - - N 17 20 9 11 1008.8 1008.8 17.2
28/05:00pm 24.9 - - - - N 28 35 15 19 1009.8 1009.8 17.2
28/04:38pm 24.1 - - - - NE 35 52 19 28 1010.6 1010.6 17.0
28/04:30pm 23.7 - - - - ENE 37 56 20 30 1010.9 1010.9 16.6
28/04:26pm 24.1 - - - - ENE 35 56 19 30 1010.7 1010.7 15.6
28/04:20pm 24.1 22.8 23.2 95 0.6 E 35 46 19 25 1011.0 1011.0 14.0
28/04:13pm 23.7 22.0 22.5 93 0.8 SE 35 44 19 24 1010.9 1010.9 12.8
28/04:02pm 22.9 17.4 22.1 95 0.5 SSE 54 72 29 39 1009.9 1009.9 10.8
28/04:00pm 22.6 16.3 21.6 94 0.7 SSE 57 72 31 39 1009.8 1009.8 9.6
28/03:49pm 26.4 22.1 21.4 74 3.3 SE 46 67 25 36 1009.1 1009.1 0.2
28/03:43pm 29.3 27.6 19.0 53 6.7 ENE 26 56 14 30 1009.2 1009.2 0.0
28/03:40pm 33.9 32.9 16.7 35 10.9 NNE 17 50 9 27 1009.2 1009.2 0.0
28/03:30pm 38.8 37.2 16.4 26 14.4 NW 20 30 11 16 1008.0 1008.0 0.0
28/03:00pm 38.4 36.3 16.1 27 14.3 NW 22 30 12 16 1008.3 1008.3 0.0
28/02:30pm 36.8 36.0 17.9 33 12.3 NNW 19 26 10 14 1009.2 1009.2 0.0
28/02:00pm 37.0 36.2 17.1 31 12.8 NNW 17 26 9 14 1010.0 1010.0 0.0
28/01:30pm 38.0 39.3 18.4 31 12.9 NNW 9 15 5 8 1010.6 1010.6 0.0
28/01:00pm 36.3 37.2 18.4 35 11.7 WSW 11 17 6 9 1011.2 1011.2 0.0
28/12:30pm 35.5 35.9 18.1 35 11.3 WNW 13 20 7 11 1011.7 1011.7 0.0
28/12:00pm 37.0 37.9 18.5 33 12.2 NE 11 20 6 11 1012.2 1012.2 0.0
28/11:30am 36.0 37.0 17.7 34 11.9 SSE 9 24 5 13 1012.7 1012.7 0.0
28/11:00am 35.0 36.5 18.1 36 11.0 SE 7 13 4 7 1013.4 1013.4 0.0
28/10:30am 34.0 35.1 18.1 39 10.3 ENE 9 13 5 7 1013.7 1013.7 0.0
28/10:00am 33.2 34.7 18.9 42 9.3 SSE 9 15 5 8 1014.0 1014.0 0.0
28/09:30am 32.6 34.4 19.5 46 8.6 ESE 9 15 5 8 1014.1 1014.1 0.0
28/09:00am 31.4 33.6 20.4 52 7.3 E 9 13 5 7 1014.0 1014.0 0.0
28/08:30am 30.8 32.5 21.0 56 6.5 ESE 13 20 7 11 1013.9 1013.9 0.0
28/08:00am 30.0 31.9 21.4 60 5.8 ESE 13 17 7 9 1013.7 1013.7 0.0
28/07:30am 28.8 31.0 21.8 66 4.7 ESE 13 15 7 8 1013.3 1013.3 0.0
28/07:00am 28.3 30.7 21.6 67 4.5 ESE 11 13 6 7 1012.8 1012.8 0.0
28/06:30am 27.6 29.4 21.2 68 4.3 SE 13 17 7 9 1012.3 1012.3 0.0
28/06:00am 27.7 29.4 21.0 67 4.4 SE 13 15 7 8 1011.9 1011.9 0.0
28/05:30am 27.7 30.6 21.0 67 4.4 NE 7 9 4 5 1011.5 1011.5 0.0
28/05:00am 27.9 32.5 21.7 69 4.2 CALM 0 0 0 0 1011.0 1011.0 0.0
28/04:30am 27.7 31.1 21.7 70 4.0 NE 6 7 3 4 1010.7 1010.7 0.0
28/04:00am 28.0 32.5 21.5 67 4.3 CALM 0 0 0 0 1010.4 1010.4 0.0
28/03:30am 27.9 30.5 20.5 64 4.9 NE 7 9 4 5 1010.6 1010.6 0.0
28/03:00am 27.9 31.2 21.4 67 4.3 NE 6 7 3 4 1010.5 1010.5 0.0
28/02:30am 28.2 32.4 21.0 65 4.8 CALM 0 0 0 0 1010.5 1010.5 0.0
28/02:00am 28.3 31.5 21.6 67 4.5 NE 7 11 4 6 1010.8 1010.8 0.0
28/01:30am 28.4 31.6 21.7 67 4.5 ENE 7 9 4 5 1011.0 1011.0 0.0
28/01:00am 28.6 30.8 21.9 67 4.5 NNE 13 19 7 10 1011.0 1011.0 0.0
28/12:30am 28.9 31.8 21.7 65 4.8 ENE 9 13 5 7 1011.3 1011.3 0.0
28/12:00am 29.2 31.1 21.4 63 5.2 E 13 17 7 9 1011.3 1011.3 0.0
 
Date/Time
CST
Temp
°C
App
Temp
°C
Dew
Point
°C
Rel
Hum
%
Delta-T
°C
Wind Press
QNH
hPa
Press
MSL
hPa
Rain since
9am
mm
Dir  Spd
km/h
Gust
km/h
Spd
kts
Gust
kts
27/11:30pm 29.3 31.7 19.6 56 6.3 NNE 6 7 3 4 1011.8 1011.8 0.0
27/11:00pm 29.8 31.9 20.1 56 6.4 N 9 13 5 7 1011.8 1011.8 0.0
27/10:30pm 29.7 32.3 20.0 56 6.4 N 6 7 3 4 1011.8 1011.8 0.0
27/10:00pm 29.8 31.7 20.6 57 6.1 N 11 13 6 7 1011.7 1011.7 0.0
27/09:30pm 30.3 32.7 19.6 52 7.0 N 6 9 3 5 1011.5 1011.5 0.0
27/09:00pm 30.1 31.6 19.8 54 6.8 N 11 19 6 10 1010.6 1010.6 0.0
27/08:30pm 30.4 30.8 18.2 48 7.8 N 13 17 7 9 1010.0 1010.0 0.0
27/08:00pm 30.9 30.6 18.3 47 8.1 N 17 24 9 13 1009.5 1009.5 0.0
27/07:30pm 31.3 30.5 17.9 44 8.6 NNE 19 26 10 14 1009.0 1009.0 0.0
27/07:00pm 31.5 30.3 18.5 46 8.4 NNE 22 30 12 16 1008.7 1008.7 0.0
27/06:30pm 32.0 32.2 19.3 47 8.3 N 17 26 9 14 1008.8 1008.8 0.0
27/06:00pm 32.5 31.1 17.9 41 9.4 NNE 22 28 12 15 1007.9 1007.9 0.0
27/05:30pm 33.6 31.6 17.3 37 10.5 NNE 24 32 13 17 1007.1 1007.1 0.0
27/05:00pm 34.0 33.1 17.7 38 10.5 N 19 28 10 15 1007.3 1007.3 0.0
27/04:30pm 34.6 33.9 18.2 37 10.7 NNE 19 28 10 15 1007.4 1007.4 0.0
27/04:00pm 34.4 32.9 17.6 37 10.8 NNE 22 35 12 19 1007.7 1007.7 0.0
27/03:30pm 35.3 33.7 18.4 37 11.1 N 24 33 13 18 1008.1 1008.1 0.0
27/03:00pm 34.6 32.6 18.2 37 10.7 NNE 26 37 14 20 1008.6 1008.6 0.0
27/02:30pm 34.4 33.0 18.0 37 10.6 NNE 22 39 12 21 1009.0 1009.0 0.0
27/02:00pm 34.4 33.0 18.8 39 10.2 N 24 35 13 19 1009.4 1009.4 0.0
27/01:30pm 33.8 33.3 19.1 42 9.7 NNE 20 33 11 18 1010.1 1010.1 0.0
27/01:00pm 33.8 32.2 18.3 39 10.1 NNE 24 33 13 18 1010.4 1010.4 0.0
27/12:30pm 34.0 33.4 20.4 45 9.1 NNE 24 37 13 20 1011.0 1011.0 0.0
27/12:00pm 32.8 31.4 19.7 46 8.6 NNE 26 37 14 20 1011.7 1011.7 0.0
27/11:30am 31.7 30.3 19.7 49 7.9 NNE 26 35 14 19 1012.3 1012.3 0.0
27/11:00am 31.7 31.8 20.3 50 7.6 NNE 20 33 11 18 1012.4 1012.4 0.0
27/10:30am 31.4 30.9 20.0 50 7.5 NNE 22 35 12 19 1012.7 1012.7 0.0
27/10:00am 30.8 32.0 19.8 52 7.2 NE 13 22 7 12 1012.8 1012.8 0.0
27/09:30am 29.0 28.8 18.4 52 6.8 NE 17 30 9 16 1012.9 1012.9 0.0
27/09:00am 28.7 28.5 18.5 54 6.5 E 17 24 9 13 1012.6 1012.6 0.0
27/08:30am 27.7 26.6 19.5 61 5.3 E 24 32 13 17 1012.3 1012.3 0.0
27/08:00am 26.7 25.3 19.6 65 4.6 E 26 33 14 18 1012.0 1012.0 0.0
27/07:30am 26.3 25.0 19.9 68 4.2 ESE 26 33 14 18 1011.3 1011.3 0.0

Other formats

Comma delimited format used in spreadsheet applications
http://www.bom.gov.au/fwo/IDD60801/IDD60801.95214.axf

JavaScript Object Notation format (JSON) in row-major order
http://www.bom.gov.au/fwo/IDD60801/IDD60801.95214.json

Data quality

Most of these data are generated automatically and are frequently updated. Quality checks on data are not normally performed. It is possible for incorrect values to appear. Refer to information at About Latest Weather Observations and please check the disclaimer before using these data.